sensor_id;sensor_type;location;lat;lon;timestamp;P1;durP1;ratioP1;P2;durP2;ratioP2
16272;SDS011;8244;50.044;9.006;2022-11-20T00:02:14;29.97;;;17.97;;
16272;SDS011;8244;50.044;9.006;2022-11-20T00:07:16;35.60;;;19.83;;
16272;SDS011;8244;50.044;9.006;2022-11-20T00:12:19;36.07;;;20.43;;
16272;SDS011;8244;50.044;9.006;2022-11-20T00:17:20;36.20;;;20.00;;
16272;SDS011;8244;50.044;9.006;2022-11-20T00:22:22;38.50;;;21.20;;
16272;SDS011;8244;50.044;9.006;2022-11-20T00:27:25;36.77;;;21.07;;
16272;SDS011;8244;50.044;9.006;2022-11-20T00:32:27;33.30;;;19.47;;
16272;SDS011;8244;50.044;9.006;2022-11-20T00:37:29;35.23;;;19.60;;
16272;SDS011;8244;50.044;9.006;2022-11-20T00:42:32;33.57;;;19.50;;
16272;SDS011;8244;50.044;9.006;2022-11-20T00:47:33;38.03;;;21.33;;
16272;SDS011;8244;50.044;9.006;2022-11-20T00:52:35;36.77;;;20.73;;
16272;SDS011;8244;50.044;9.006;2022-11-20T00:57:38;35.80;;;20.77;;
16272;SDS011;8244;50.044;9.006;2022-11-20T01:02:40;35.17;;;19.93;;
16272;SDS011;8244;50.044;9.006;2022-11-20T01:07:41;37.33;;;21.13;;
16272;SDS011;8244;50.044;9.006;2022-11-20T01:12:44;38.20;;;21.30;;
16272;SDS011;8244;50.044;9.006;2022-11-20T01:18:07;35.37;;;20.10;;
16272;SDS011;8244;50.044;9.006;2022-11-20T01:23:08;36.07;;;20.53;;
16272;SDS011;8244;50.044;9.006;2022-11-20T01:28:11;38.33;;;20.40;;
16272;SDS011;8244;50.044;9.006;2022-11-20T01:33:13;35.63;;;19.63;;
16272;SDS011;8244;50.044;9.006;2022-11-20T01:38:15;34.23;;;18.80;;
16272;SDS011;8244;50.044;9.006;2022-11-20T01:43:18;37.90;;;20.40;;
16272;SDS011;8244;50.044;9.006;2022-11-20T01:48:21;35.83;;;19.90;;
16272;SDS011;8244;50.044;9.006;2022-11-20T01:53:27;37.43;;;21.30;;
16272;SDS011;8244;50.044;9.006;2022-11-20T01:58:35;35.40;;;19.67;;
16272;SDS011;8244;50.044;9.006;2022-11-20T02:03:40;36.37;;;19.27;;
16272;SDS011;8244;50.044;9.006;2022-11-20T02:08:44;36.00;;;21.30;;
16272;SDS011;8244;50.044;9.006;2022-11-20T02:13:47;36.83;;;20.17;;
16272;SDS011;8244;50.044;9.006;2022-11-20T02:18:50;40.70;;;20.97;;
16272;SDS011;8244;50.044;9.006;2022-11-20T02:24:02;39.70;;;21.07;;
16272;SDS011;8244;50.044;9.006;2022-11-20T02:29:06;35.10;;;19.07;;
16272;SDS011;8244;50.044;9.006;2022-11-20T02:34:08;36.30;;;20.70;;
16272;SDS011;8244;50.044;9.006;2022-11-20T02:39:11;37.80;;;20.47;;
16272;SDS011;8244;50.044;9.006;2022-11-20T02:44:17;38.83;;;20.83;;
16272;SDS011;8244;50.044;9.006;2022-11-20T02:49:19;38.97;;;20.07;;
16272;SDS011;8244;50.044;9.006;2022-11-20T02:54:22;37.93;;;20.57;;
16272;SDS011;8244;50.044;9.006;2022-11-20T02:59:24;41.17;;;20.33;;
16272;SDS011;8244;50.044;9.006;2022-11-20T03:04:26;38.80;;;20.17;;
16272;SDS011;8244;50.044;9.006;2022-11-20T03:09:29;34.83;;;19.97;;
16272;SDS011;8244;50.044;9.006;2022-11-20T03:14:31;41.03;;;21.07;;
16272;SDS011;8244;50.044;9.006;2022-11-20T03:19:32;34.03;;;18.33;;
16272;SDS011;8244;50.044;9.006;2022-11-20T03:24:36;39.53;;;19.80;;
16272;SDS011;8244;50.044;9.006;2022-11-20T03:29:37;35.07;;;19.27;;
16272;SDS011;8244;50.044;9.006;2022-11-20T03:34:39;30.73;;;16.10;;
16272;SDS011;8244;50.044;9.006;2022-11-20T03:39:42;34.30;;;18.10;;
16272;SDS011;8244;50.044;9.006;2022-11-20T03:44:44;32.57;;;17.83;;
16272;SDS011;8244;50.044;9.006;2022-11-20T03:49:45;31.03;;;17.30;;
16272;SDS011;8244;50.044;9.006;2022-11-20T03:54:48;31.17;;;16.87;;
16272;SDS011;8244;50.044;9.006;2022-11-20T03:59:50;32.63;;;17.23;;
16272;SDS011;8244;50.044;9.006;2022-11-20T04:04:51;29.27;;;16.50;;
16272;SDS011;8244;50.044;9.006;2022-11-20T04:09:54;33.60;;;17.33;;
16272;SDS011;8244;50.044;9.006;2022-11-20T04:14:56;35.17;;;18.80;;
16272;SDS011;8244;50.044;9.006;2022-11-20T04:19:58;37.03;;;19.27;;
16272;SDS011;8244;50.044;9.006;2022-11-20T04:25:01;34.63;;;18.37;;
16272;SDS011;8244;50.044;9.006;2022-11-20T04:30:03;34.10;;;18.63;;
16272;SDS011;8244;50.044;9.006;2022-11-20T04:35:05;36.23;;;18.93;;
16272;SDS011;8244;50.044;9.006;2022-11-20T04:40:09;34.67;;;19.57;;
16272;SDS011;8244;50.044;9.006;2022-11-20T04:45:11;32.67;;;17.47;;
16272;SDS011;8244;50.044;9.006;2022-11-20T04:50:13;32.20;;;17.37;;
16272;SDS011;8244;50.044;9.006;2022-11-20T04:55:16;36.60;;;19.50;;
16272;SDS011;8244;50.044;9.006;2022-11-20T05:00:18;35.17;;;19.07;;
16272;SDS011;8244;50.044;9.006;2022-11-20T05:05:20;36.20;;;18.10;;
16272;SDS011;8244;50.044;9.006;2022-11-20T05:10:23;30.00;;;16.40;;
16272;SDS011;8244;50.044;9.006;2022-11-20T05:15:24;32.70;;;17.30;;
16272;SDS011;8244;50.044;9.006;2022-11-20T05:20:26;28.10;;;15.77;;
16272;SDS011;8244;50.044;9.006;2022-11-20T05:25:29;27.40;;;15.40;;
16272;SDS011;8244;50.044;9.006;2022-11-20T05:30:31;27.37;;;15.37;;
16272;SDS011;8244;50.044;9.006;2022-11-20T05:35:32;26.37;;;14.67;;
16272;SDS011;8244;50.044;9.006;2022-11-20T05:40:35;27.00;;;15.53;;
16272;SDS011;8244;50.044;9.006;2022-11-20T05:45:37;28.00;;;15.90;;
16272;SDS011;8244;50.044;9.006;2022-11-20T05:50:39;26.10;;;14.57;;
16272;SDS011;8244;50.044;9.006;2022-11-20T05:55:42;29.13;;;16.17;;
16272;SDS011;8244;50.044;9.006;2022-11-20T06:00:43;30.63;;;14.77;;
16272;SDS011;8244;50.044;9.006;2022-11-20T06:05:45;30.40;;;15.30;;
16272;SDS011;8244;50.044;9.006;2022-11-20T06:10:49;30.53;;;15.07;;
16272;SDS011;8244;50.044;9.006;2022-11-20T06:15:50;27.13;;;14.23;;
16272;SDS011;8244;50.044;9.006;2022-11-20T06:20:58;30.97;;;15.93;;
16272;SDS011;8244;50.044;9.006;2022-11-20T06:26:03;26.77;;;13.67;;
16272;SDS011;8244;50.044;9.006;2022-11-20T06:31:05;30.27;;;15.63;;
16272;SDS011;8244;50.044;9.006;2022-11-20T06:36:07;31.83;;;16.53;;
16272;SDS011;8244;50.044;9.006;2022-11-20T06:41:13;32.50;;;16.03;;
16272;SDS011;8244;50.044;9.006;2022-11-20T06:46:16;32.80;;;15.33;;
16272;SDS011;8244;50.044;9.006;2022-11-20T06:51:19;27.70;;;14.23;;
16272;SDS011;8244;50.044;9.006;2022-11-20T06:56:22;30.17;;;15.07;;
16272;SDS011;8244;50.044;9.006;2022-11-20T07:01:24;27.83;;;13.70;;
16272;SDS011;8244;50.044;9.006;2022-11-20T07:06:26;27.90;;;14.30;;
16272;SDS011;8244;50.044;9.006;2022-11-20T07:11:28;27.77;;;14.40;;
16272;SDS011;8244;50.044;9.006;2022-11-20T07:16:30;31.87;;;16.43;;
16272;SDS011;8244;50.044;9.006;2022-11-20T07:21:32;31.13;;;14.47;;
16272;SDS011;8244;50.044;9.006;2022-11-20T07:26:35;32.43;;;15.87;;
16272;SDS011;8244;50.044;9.006;2022-11-20T07:31:37;32.33;;;15.97;;
16272;SDS011;8244;50.044;9.006;2022-11-20T07:36:39;33.23;;;16.97;;
16272;SDS011;8244;50.044;9.006;2022-11-20T07:41:42;29.53;;;14.97;;
16272;SDS011;8244;50.044;9.006;2022-11-20T07:46:43;31.03;;;14.83;;
16272;SDS011;8244;50.044;9.006;2022-11-20T07:51:45;28.23;;;15.20;;
16272;SDS011;8244;50.044;9.006;2022-11-20T07:56:48;24.93;;;13.17;;
16272;SDS011;8244;50.044;9.006;2022-11-20T08:01:50;28.97;;;14.40;;
16272;SDS011;8244;50.044;9.006;2022-11-20T08:06:52;29.33;;;14.70;;
16272;SDS011;8244;50.044;9.006;2022-11-20T08:11:55;28.20;;;13.73;;
16272;SDS011;8244;50.044;9.006;2022-11-20T08:17:14;25.47;;;12.30;;
16272;SDS011;8244;50.044;9.006;2022-11-20T08:22:16;20.30;;;10.83;;
16272;SDS011;8244;50.044;9.006;2022-11-20T08:27:19;20.47;;;10.70;;
16272;SDS011;8244;50.044;9.006;2022-11-20T08:32:21;22.07;;;11.33;;
16272;SDS011;8244;50.044;9.006;2022-11-20T08:37:22;22.83;;;11.93;;
16272;SDS011;8244;50.044;9.006;2022-11-20T08:42:25;27.37;;;13.53;;
16272;SDS011;8244;50.044;9.006;2022-11-20T08:47:27;26.37;;;14.10;;
16272;SDS011;8244;50.044;9.006;2022-11-20T08:52:28;28.60;;;13.73;;
16272;SDS011;8244;50.044;9.006;2022-11-20T08:57:32;25.87;;;13.50;;
16272;SDS011;8244;50.044;9.006;2022-11-20T09:02:34;23.80;;;12.67;;
16272;SDS011;8244;50.044;9.006;2022-11-20T09:07:35;24.40;;;13.13;;
16272;SDS011;8244;50.044;9.006;2022-11-20T09:12:38;23.80;;;12.33;;
16272;SDS011;8244;50.044;9.006;2022-11-20T09:17:40;25.47;;;13.03;;
16272;SDS011;8244;50.044;9.006;2022-11-20T09:22:42;25.07;;;12.03;;
16272;SDS011;8244;50.044;9.006;2022-11-20T09:27:45;21.13;;;11.40;;
16272;SDS011;8244;50.044;9.006;2022-11-20T09:32:47;24.67;;;12.40;;
16272;SDS011;8244;50.044;9.006;2022-11-20T09:37:48;25.67;;;14.43;;
16272;SDS011;8244;50.044;9.006;2022-11-20T09:42:54;22.80;;;13.18;;
16272;SDS011;8244;50.044;9.006;2022-11-20T09:48:03;23.13;;;13.03;;
16272;SDS011;8244;50.044;9.006;2022-11-20T09:53:20;26.55;;;15.93;;
16272;SDS011;8244;50.044;9.006;2022-11-20T09:58:31;31.88;;;19.88;;
16272;SDS011;8244;50.044;9.006;2022-11-20T10:03:38;30.05;;;16.42;;
16272;SDS011;8244;50.044;9.006;2022-11-20T10:08:47;35.95;;;20.25;;
16272;SDS011;8244;50.044;9.006;2022-11-20T10:13:57;29.63;;;15.57;;
16272;SDS011;8244;50.044;9.006;2022-11-20T10:19:13;31.30;;;18.40;;
16272;SDS011;8244;50.044;9.006;2022-11-20T10:24:28;29.50;;;16.95;;
16272;SDS011;8244;50.044;9.006;2022-11-20T10:29:42;29.50;;;16.08;;
16272;SDS011;8244;50.044;9.006;2022-11-20T10:34:49;31.38;;;15.85;;
16272;SDS011;8244;50.044;9.006;2022-11-20T10:39:55;29.05;;;15.80;;
16272;SDS011;8244;50.044;9.006;2022-11-20T10:45:09;28.83;;;15.95;;
16272;SDS011;8244;50.044;9.006;2022-11-20T10:50:18;26.98;;;15.60;;
16272;SDS011;8244;50.044;9.006;2022-11-20T10:55:25;27.02;;;15.68;;
16272;SDS011;8244;50.044;9.006;2022-11-20T11:00:34;29.63;;;16.33;;
16272;SDS011;8244;50.044;9.006;2022-11-20T11:05:36;29.90;;;16.73;;
16272;SDS011;8244;50.044;9.006;2022-11-20T11:10:43;26.75;;;15.70;;
16272;SDS011;8244;50.044;9.006;2022-11-20T11:15:49;26.40;;;15.52;;
16272;SDS011;8244;50.044;9.006;2022-11-20T11:20:51;24.25;;;14.68;;
16272;SDS011;8244;50.044;9.006;2022-11-20T11:25:58;25.42;;;14.40;;
16272;SDS011;8244;50.044;9.006;2022-11-20T11:31:02;25.70;;;15.93;;
16272;SDS011;8244;50.044;9.006;2022-11-20T11:36:14;25.88;;;15.10;;
16272;SDS011;8244;50.044;9.006;2022-11-20T11:41:20;23.52;;;14.68;;
16272;SDS011;8244;50.044;9.006;2022-11-20T11:46:32;24.38;;;14.45;;
16272;SDS011;8244;50.044;9.006;2022-11-20T11:51:36;26.05;;;14.65;;
16272;SDS011;8244;50.044;9.006;2022-11-20T11:56:42;23.58;;;14.02;;
16272;SDS011;8244;50.044;9.006;2022-11-20T12:01:48;23.45;;;14.70;;
16272;SDS011;8244;50.044;9.006;2022-11-20T12:06:57;28.08;;;16.45;;
16272;SDS011;8244;50.044;9.006;2022-11-20T12:12:05;26.63;;;15.55;;
16272;SDS011;8244;50.044;9.006;2022-11-20T12:17:13;24.60;;;14.65;;
16272;SDS011;8244;50.044;9.006;2022-11-20T12:22:17;25.70;;;15.63;;
16272;SDS011;8244;50.044;9.006;2022-11-20T12:27:48;23.52;;;15.20;;
16272;SDS011;8244;50.044;9.006;2022-11-20T12:33:15;25.65;;;15.95;;
16272;SDS011;8244;50.044;9.006;2022-11-20T12:38:38;26.95;;;16.48;;
16272;SDS011;8244;50.044;9.006;2022-11-20T12:43:51;27.50;;;16.88;;
16272;SDS011;8244;50.044;9.006;2022-11-20T12:49:27;26.88;;;16.25;;
16272;SDS011;8244;50.044;9.006;2022-11-20T13:00:06;28.95;;;17.35;;
16272;SDS011;8244;50.044;9.006;2022-11-20T13:05:18;27.70;;;16.70;;
16272;SDS011;8244;50.044;9.006;2022-11-20T13:10:26;26.40;;;16.58;;
16272;SDS011;8244;50.044;9.006;2022-11-20T13:15:36;25.63;;;15.55;;
16272;SDS011;8244;50.044;9.006;2022-11-20T13:20:48;23.80;;;15.80;;
16272;SDS011;8244;50.044;9.006;2022-11-20T13:25:51;23.05;;;14.23;;
16272;SDS011;8244;50.044;9.006;2022-11-20T13:31:03;24.45;;;15.63;;
16272;SDS011;8244;50.044;9.006;2022-11-20T13:36:21;23.60;;;15.05;;
16272;SDS011;8244;50.044;9.006;2022-11-20T13:41:26;24.67;;;14.88;;
16272;SDS011;8244;50.044;9.006;2022-11-20T13:46:35;26.20;;;16.10;;
16272;SDS011;8244;50.044;9.006;2022-11-20T13:51:42;30.40;;;17.42;;
16272;SDS011;8244;50.044;9.006;2022-11-20T13:56:53;26.00;;;16.08;;
16272;SDS011;8244;50.044;9.006;2022-11-20T14:02:03;25.23;;;16.05;;
16272;SDS011;8244;50.044;9.006;2022-11-20T14:07:13;26.90;;;15.77;;
16272;SDS011;8244;50.044;9.006;2022-11-20T14:12:16;23.27;;;14.15;;
16272;SDS011;8244;50.044;9.006;2022-11-20T14:17:21;24.38;;;14.57;;
16272;SDS011;8244;50.044;9.006;2022-11-20T14:22:26;19.95;;;12.25;;
16272;SDS011;8244;50.044;9.006;2022-11-20T14:27:28;17.02;;;11.23;;
16272;SDS011;8244;50.044;9.006;2022-11-20T14:32:34;19.20;;;11.52;;
16272;SDS011;8244;50.044;9.006;2022-11-20T14:37:38;18.73;;;11.32;;
16272;SDS011;8244;50.044;9.006;2022-11-20T14:42:43;24.48;;;13.55;;
16272;SDS011;8244;50.044;9.006;2022-11-20T14:47:45;19.58;;;11.35;;
16272;SDS011;8244;50.044;9.006;2022-11-20T14:52:52;18.95;;;11.52;;
16272;SDS011;8244;50.044;9.006;2022-11-20T14:57:55;22.65;;;13.70;;
16272;SDS011;8244;50.044;9.006;2022-11-20T15:02:58;24.77;;;15.80;;
16272;SDS011;8244;50.044;9.006;2022-11-20T15:08:06;19.35;;;12.45;;
16272;SDS011;8244;50.044;9.006;2022-11-20T15:13:11;24.90;;;14.57;;
16272;SDS011;8244;50.044;9.006;2022-11-20T15:18:15;23.33;;;13.88;;
16272;SDS011;8244;50.044;9.006;2022-11-20T15:23:20;25.52;;;16.25;;
16272;SDS011;8244;50.044;9.006;2022-11-20T15:28:23;31.50;;;17.83;;
16272;SDS011;8244;50.044;9.006;2022-11-20T15:33:31;31.83;;;17.88;;
16272;SDS011;8244;50.044;9.006;2022-11-20T15:38:35;26.77;;;16.35;;
16272;SDS011;8244;50.044;9.006;2022-11-20T15:43:37;27.60;;;15.93;;
16272;SDS011;8244;50.044;9.006;2022-11-20T15:48:39;28.15;;;17.75;;
16272;SDS011;8244;50.044;9.006;2022-11-20T15:53:45;41.70;;;23.65;;
16272;SDS011;8244;50.044;9.006;2022-11-20T15:58:47;33.05;;;19.23;;
16272;SDS011;8244;50.044;9.006;2022-11-20T16:03:49;30.15;;;18.00;;
16272;SDS011;8244;50.044;9.006;2022-11-20T16:08:51;34.07;;;20.13;;
16272;SDS011;8244;50.044;9.006;2022-11-20T16:13:53;30.65;;;18.73;;
16272;SDS011;8244;50.044;9.006;2022-11-20T16:19:13;27.52;;;16.77;;
16272;SDS011;8244;50.044;9.006;2022-11-20T16:24:16;25.38;;;15.75;;
16272;SDS011;8244;50.044;9.006;2022-11-20T16:29:18;25.63;;;15.30;;
16272;SDS011;8244;50.044;9.006;2022-11-20T16:34:20;26.15;;;14.65;;
16272;SDS011;8244;50.044;9.006;2022-11-20T16:39:23;25.27;;;14.38;;
16272;SDS011;8244;50.044;9.006;2022-11-20T16:44:26;22.73;;;14.10;;
16272;SDS011;8244;50.044;9.006;2022-11-20T16:49:27;26.83;;;14.83;;
16272;SDS011;8244;50.044;9.006;2022-11-20T16:54:30;26.65;;;15.85;;
16272;SDS011;8244;50.044;9.006;2022-11-20T16:59:32;25.08;;;15.73;;
16272;SDS011;8244;50.044;9.006;2022-11-20T17:04:34;26.00;;;15.77;;
16272;SDS011;8244;50.044;9.006;2022-11-20T17:09:37;25.92;;;15.50;;
16272;SDS011;8244;50.044;9.006;2022-11-20T17:14:39;24.38;;;14.63;;
16272;SDS011;8244;50.044;9.006;2022-11-20T17:19:40;25.52;;;15.90;;
16272;SDS011;8244;50.044;9.006;2022-11-20T17:24:43;26.13;;;15.27;;
16272;SDS011;8244;50.044;9.006;2022-11-20T17:29:45;25.80;;;15.48;;
16272;SDS011;8244;50.044;9.006;2022-11-20T17:34:47;26.20;;;15.23;;
16272;SDS011;8244;50.044;9.006;2022-11-20T17:39:50;26.60;;;16.30;;
16272;SDS011;8244;50.044;9.006;2022-11-20T17:44:51;26.83;;;16.05;;
16272;SDS011;8244;50.044;9.006;2022-11-20T17:49:53;24.03;;;15.03;;
16272;SDS011;8244;50.044;9.006;2022-11-20T17:54:56;26.67;;;16.38;;
16272;SDS011;8244;50.044;9.006;2022-11-20T17:59:58;30.17;;;18.40;;
16272;SDS011;8244;50.044;9.006;2022-11-20T18:04:59;23.90;;;15.50;;
16272;SDS011;8244;50.044;9.006;2022-11-20T18:10:02;25.60;;;16.77;;
16272;SDS011;8244;50.044;9.006;2022-11-20T18:15:06;29.42;;;16.73;;
16272;SDS011;8244;50.044;9.006;2022-11-20T18:20:08;30.25;;;17.75;;
16272;SDS011;8244;50.044;9.006;2022-11-20T18:25:12;26.85;;;15.35;;
16272;SDS011;8244;50.044;9.006;2022-11-20T18:30:14;26.80;;;14.73;;
16272;SDS011;8244;50.044;9.006;2022-11-20T18:35:15;24.10;;;13.02;;
16272;SDS011;8244;50.044;9.006;2022-11-20T18:40:18;23.65;;;11.65;;
16272;SDS011;8244;50.044;9.006;2022-11-20T18:45:20;19.90;;;11.23;;
16272;SDS011;8244;50.044;9.006;2022-11-20T18:50:22;19.58;;;7.65;;
16272;SDS011;8244;50.044;9.006;2022-11-20T18:55:25;10.68;;;5.70;;
16272;SDS011;8244;50.044;9.006;2022-11-20T19:00:26;9.35;;;4.82;;
16272;SDS011;8244;50.044;9.006;2022-11-20T19:05:28;12.55;;;5.28;;
16272;SDS011;8244;50.044;9.006;2022-11-20T19:10:31;17.27;;;7.32;;
16272;SDS011;8244;50.044;9.006;2022-11-20T19:15:33;18.92;;;7.90;;
16272;SDS011;8244;50.044;9.006;2022-11-20T19:20:36;15.25;;;5.85;;
16272;SDS011;8244;50.044;9.006;2022-11-20T19:25:39;14.75;;;5.50;;
16272;SDS011;8244;50.044;9.006;2022-11-20T19:30:41;11.38;;;3.78;;
16272;SDS011;8244;50.044;9.006;2022-11-20T19:35:43;8.82;;;3.70;;
16272;SDS011;8244;50.044;9.006;2022-11-20T19:40:46;7.72;;;3.25;;
16272;SDS011;8244;50.044;9.006;2022-11-20T19:45:47;13.15;;;5.38;;
16272;SDS011;8244;50.044;9.006;2022-11-20T19:50:49;11.07;;;4.68;;
16272;SDS011;8244;50.044;9.006;2022-11-20T19:55:56;11.80;;;4.93;;
16272;SDS011;8244;50.044;9.006;2022-11-20T20:01:04;12.35;;;4.38;;
16272;SDS011;8244;50.044;9.006;2022-11-20T20:06:07;8.43;;;3.85;;
16272;SDS011;8244;50.044;9.006;2022-11-20T20:11:15;14.45;;;6.75;;
16272;SDS011;8244;50.044;9.006;2022-11-20T20:16:20;8.70;;;3.72;;
16272;SDS011;8244;50.044;9.006;2022-11-20T20:21:22;11.13;;;5.32;;
16272;SDS011;8244;50.044;9.006;2022-11-20T20:26:26;8.60;;;3.45;;
16272;SDS011;8244;50.044;9.006;2022-11-20T20:31:30;9.75;;;3.83;;
16272;SDS011;8244;50.044;9.006;2022-11-20T20:36:32;9.27;;;4.82;;
16272;SDS011;8244;50.044;9.006;2022-11-20T20:41:35;10.45;;;3.20;;
16272;SDS011;8244;50.044;9.006;2022-11-20T20:46:37;6.28;;;3.08;;
16272;SDS011;8244;50.044;9.006;2022-11-20T20:51:39;5.45;;;2.80;;
16272;SDS011;8244;50.044;9.006;2022-11-20T20:56:42;8.05;;;3.05;;
16272;SDS011;8244;50.044;9.006;2022-11-20T21:01:43;6.60;;;2.63;;
16272;SDS011;8244;50.044;9.006;2022-11-20T21:06:45;4.05;;;2.15;;
16272;SDS011;8244;50.044;9.006;2022-11-20T21:11:48;6.53;;;2.50;;
16272;SDS011;8244;50.044;9.006;2022-11-20T21:16:50;5.53;;;2.60;;
16272;SDS011;8244;50.044;9.006;2022-11-20T21:21:52;6.00;;;2.08;;
16272;SDS011;8244;50.044;9.006;2022-11-20T21:27:02;5.00;;;1.90;;
16272;SDS011;8244;50.044;9.006;2022-11-20T21:32:05;4.40;;;1.85;;
16272;SDS011;8244;50.044;9.006;2022-11-20T21:37:07;3.35;;;1.88;;
16272;SDS011;8244;50.044;9.006;2022-11-20T21:42:10;4.30;;;2.00;;
16272;SDS011;8244;50.044;9.006;2022-11-20T21:47:13;3.38;;;1.85;;
16272;SDS011;8244;50.044;9.006;2022-11-20T21:52:15;3.20;;;1.60;;
16272;SDS011;8244;50.044;9.006;2022-11-20T21:57:18;3.63;;;1.80;;
16272;SDS011;8244;50.044;9.006;2022-11-20T22:02:20;3.30;;;1.90;;
16272;SDS011;8244;50.044;9.006;2022-11-20T22:07:21;3.03;;;1.60;;
16272;SDS011;8244;50.044;9.006;2022-11-20T22:12:24;7.22;;;2.20;;
16272;SDS011;8244;50.044;9.006;2022-11-20T22:17:26;5.45;;;2.10;;
16272;SDS011;8244;50.044;9.006;2022-11-20T22:22:42;3.72;;;1.88;;
16272;SDS011;8244;50.044;9.006;2022-11-20T22:27:46;2.75;;;1.55;;
16272;SDS011;8244;50.044;9.006;2022-11-20T22:32:47;3.03;;;2.00;;
16272;SDS011;8244;50.044;9.006;2022-11-20T22:37:53;6.10;;;1.80;;
16272;SDS011;8244;50.044;9.006;2022-11-20T22:42:56;5.70;;;1.90;;
16272;SDS011;8244;50.044;9.006;2022-11-20T22:47:57;9.10;;;2.25;;
16272;SDS011;8244;50.044;9.006;2022-11-20T22:52:59;4.65;;;1.88;;
16272;SDS011;8244;50.044;9.006;2022-11-20T22:58:02;4.72;;;1.88;;
16272;SDS011;8244;50.044;9.006;2022-11-20T23:03:04;5.10;;;1.88;;
16272;SDS011;8244;50.044;9.006;2022-11-20T23:08:05;5.05;;;1.70;;
16272;SDS011;8244;50.044;9.006;2022-11-20T23:13:08;3.90;;;1.95;;
16272;SDS011;8244;50.044;9.006;2022-11-20T23:18:10;9.18;;;2.20;;
16272;SDS011;8244;50.044;9.006;2022-11-20T23:23:12;7.60;;;2.88;;
16272;SDS011;8244;50.044;9.006;2022-11-20T23:28:15;5.68;;;1.90;;
16272;SDS011;8244;50.044;9.006;2022-11-20T23:33:16;7.93;;;2.00;;
16272;SDS011;8244;50.044;9.006;2022-11-20T23:38:18;6.95;;;1.90;;
16272;SDS011;8244;50.044;9.006;2022-11-20T23:43:21;6.05;;;1.80;;
16272;SDS011;8244;50.044;9.006;2022-11-20T23:48:24;6.43;;;2.20;;
16272;SDS011;8244;50.044;9.006;2022-11-20T23:53:28;9.57;;;1.98;;
16272;SDS011;8244;50.044;9.006;2022-11-20T23:58:31;6.53;;;2.13;;
